sensor_id;sensor_type;location;lat;lon;timestamp;temperature;humidity
24085;DHT22;12268;52.110;5.548;2023-10-13T00:01:23;20.40;99.90
24085;DHT22;12268;52.110;5.548;2023-10-13T00:03:50;20.50;99.90
24085;DHT22;12268;52.110;5.548;2023-10-13T00:06:18;20.40;99.90
24085;DHT22;12268;52.110;5.548;2023-10-13T00:08:44;20.50;99.90
24085;DHT22;12268;52.110;5.548;2023-10-13T00:11:15;20.40;99.90
24085;DHT22;12268;52.110;5.548;2023-10-13T00:13:41;20.50;99.90
24085;DHT22;12268;52.110;5.548;2023-10-13T00:16:17;20.50;99.90
24085;DHT22;12268;52.110;5.548;2023-10-13T00:18:47;20.40;99.90
24085;DHT22;12268;52.110;5.548;2023-10-13T00:21:14;20.40;99.90
24085;DHT22;12268;52.110;5.548;2023-10-13T00:23:42;20.50;99.90
24085;DHT22;12268;52.110;5.548;2023-10-13T00:26:21;20.60;99.90
24085;DHT22;12268;52.110;5.548;2023-10-13T00:28:52;20.50;99.90
24085;DHT22;12268;52.110;5.548;2023-10-13T00:31:37;20.50;99.90
24085;DHT22;12268;52.110;5.548;2023-10-13T00:34:05;20.70;99.90
24085;DHT22;12268;52.110;5.548;2023-10-13T00:36:38;20.70;99.90
24085;DHT22;12268;52.110;5.548;2023-10-13T00:39:17;20.70;99.90
24085;DHT22;12268;52.110;5.548;2023-10-13T00:41:43;20.50;99.90
24085;DHT22;12268;52.110;5.548;2023-10-13T00:44:21;20.60;99.90
24085;DHT22;12268;52.110;5.548;2023-10-13T00:47:05;20.40;99.90
24085;DHT22;12268;52.110;5.548;2023-10-13T00:49:35;20.40;99.90
24085;DHT22;12268;52.110;5.548;2023-10-13T00:52:06;20.60;99.90
24085;DHT22;12268;52.110;5.548;2023-10-13T00:54:34;20.60;99.90
24085;DHT22;12268;52.110;5.548;2023-10-13T00:57:01;20.70;99.90
24085;DHT22;12268;52.110;5.548;2023-10-13T00:59:33;20.70;99.90
24085;DHT22;12268;52.110;5.548;2023-10-13T01:02:02;20.90;99.90
24085;DHT22;12268;52.110;5.548;2023-10-13T01:04:48;20.90;99.90
24085;DHT22;12268;52.110;5.548;2023-10-13T01:07:13;20.80;99.90
24085;DHT22;12268;52.110;5.548;2023-10-13T01:09:44;20.60;99.90
24085;DHT22;12268;52.110;5.548;2023-10-13T01:12:12;20.60;99.90
24085;DHT22;12268;52.110;5.548;2023-10-13T01:14:38;20.70;99.90
24085;DHT22;12268;52.110;5.548;2023-10-13T01:17:04;20.70;99.90
24085;DHT22;12268;52.110;5.548;2023-10-13T01:19:30;20.60;99.90
24085;DHT22;12268;52.110;5.548;2023-10-13T01:21:55;20.50;99.90
24085;DHT22;12268;52.110;5.548;2023-10-13T01:24:29;20.40;99.90
24085;DHT22;12268;52.110;5.548;2023-10-13T01:26:57;20.40;99.90
24085;DHT22;12268;52.110;5.548;2023-10-13T01:29:23;20.40;99.90
24085;DHT22;12268;52.110;5.548;2023-10-13T01:31:54;20.30;99.90
24085;DHT22;12268;52.110;5.548;2023-10-13T01:34:20;20.30;99.90
24085;DHT22;12268;52.110;5.548;2023-10-13T01:36:49;20.30;99.90
24085;DHT22;12268;52.110;5.548;2023-10-13T01:39:24;20.40;99.90
24085;DHT22;12268;52.110;5.548;2023-10-13T01:41:54;20.40;99.90
24085;DHT22;12268;52.110;5.548;2023-10-13T01:44:26;20.40;99.90
24085;DHT22;12268;52.110;5.548;2023-10-13T01:46:59;20.20;99.90
24085;DHT22;12268;52.110;5.548;2023-10-13T01:49:25;20.20;99.90
24085;DHT22;12268;52.110;5.548;2023-10-13T01:51:51;20.20;99.90
24085;DHT22;12268;52.110;5.548;2023-10-13T01:54:17;20.10;99.90
24085;DHT22;12268;52.110;5.548;2023-10-13T01:56:43;20.10;99.90
24085;DHT22;12268;52.110;5.548;2023-10-13T01:59:11;20.00;99.90
24085;DHT22;12268;52.110;5.548;2023-10-13T02:01:38;20.10;99.90
24085;DHT22;12268;52.110;5.548;2023-10-13T02:04:05;20.20;99.90
24085;DHT22;12268;52.110;5.548;2023-10-13T02:06:33;20.30;99.90
24085;DHT22;12268;52.110;5.548;2023-10-13T02:09:06;20.30;99.90
24085;DHT22;12268;52.110;5.548;2023-10-13T02:11:50;20.20;99.90
24085;DHT22;12268;52.110;5.548;2023-10-13T02:14:20;20.30;99.90
24085;DHT22;12268;52.110;5.548;2023-10-13T02:16:48;20.30;99.90
24085;DHT22;12268;52.110;5.548;2023-10-13T02:19:16;20.30;99.90
24085;DHT22;12268;52.110;5.548;2023-10-13T02:21:44;20.20;99.90
24085;DHT22;12268;52.110;5.548;2023-10-13T02:24:10;20.30;99.90
24085;DHT22;12268;52.110;5.548;2023-10-13T02:26:44;20.40;99.90
24085;DHT22;12268;52.110;5.548;2023-10-13T02:29:10;20.40;99.90
24085;DHT22;12268;52.110;5.548;2023-10-13T02:31:41;20.40;99.90
24085;DHT22;12268;52.110;5.548;2023-10-13T02:34:07;20.40;99.90
24085;DHT22;12268;52.110;5.548;2023-10-13T02:36:34;20.50;99.90
24085;DHT22;12268;52.110;5.548;2023-10-13T02:39:12;20.40;99.90
24085;DHT22;12268;52.110;5.548;2023-10-13T02:41:39;20.50;99.90
24085;DHT22;12268;52.110;5.548;2023-10-13T02:44:07;20.50;99.90
24085;DHT22;12268;52.110;5.548;2023-10-13T02:46:36;20.20;99.90
24085;DHT22;12268;52.110;5.548;2023-10-13T02:49:05;20.20;99.90
24085;DHT22;12268;52.110;5.548;2023-10-13T02:51:37;20.20;99.90
24085;DHT22;12268;52.110;5.548;2023-10-13T02:54:06;20.20;99.90
24085;DHT22;12268;52.110;5.548;2023-10-13T02:56:36;20.40;99.90
24085;DHT22;12268;52.110;5.548;2023-10-13T02:59:03;20.30;99.90
24085;DHT22;12268;52.110;5.548;2023-10-13T03:01:35;20.30;99.90
24085;DHT22;12268;52.110;5.548;2023-10-13T03:04:04;20.30;99.90
24085;DHT22;12268;52.110;5.548;2023-10-13T03:06:34;20.30;99.90
24085;DHT22;12268;52.110;5.548;2023-10-13T03:09:02;20.30;99.90
24085;DHT22;12268;52.110;5.548;2023-10-13T03:11:40;20.10;99.90
24085;DHT22;12268;52.110;5.548;2023-10-13T03:14:14;20.30;99.90
24085;DHT22;12268;52.110;5.548;2023-10-13T03:16:56;20.40;99.90
24085;DHT22;12268;52.110;5.548;2023-10-13T03:19:32;20.60;99.90
24085;DHT22;12268;52.110;5.548;2023-10-13T03:22:10;20.60;99.90
24085;DHT22;12268;52.110;5.548;2023-10-13T03:24:40;20.50;99.90
24085;DHT22;12268;52.110;5.548;2023-10-13T03:27:13;20.50;99.90
24085;DHT22;12268;52.110;5.548;2023-10-13T03:29:43;20.40;99.90
24085;DHT22;12268;52.110;5.548;2023-10-13T03:32:18;20.60;99.90
24085;DHT22;12268;52.110;5.548;2023-10-13T03:34:44;20.50;99.90
24085;DHT22;12268;52.110;5.548;2023-10-13T03:37:26;20.50;99.90
24085;DHT22;12268;52.110;5.548;2023-10-13T03:40:11;20.30;99.90
24085;DHT22;12268;52.110;5.548;2023-10-13T03:42:47;20.40;99.90
24085;DHT22;12268;52.110;5.548;2023-10-13T03:45:25;20.50;99.90
24085;DHT22;12268;52.110;5.548;2023-10-13T03:47:52;20.40;99.90
24085;DHT22;12268;52.110;5.548;2023-10-13T03:50:18;20.30;99.90
24085;DHT22;12268;52.110;5.548;2023-10-13T03:52:58;20.30;99.90
24085;DHT22;12268;52.110;5.548;2023-10-13T03:55:24;20.30;99.90
24085;DHT22;12268;52.110;5.548;2023-10-13T03:57:56;20.30;99.90
24085;DHT22;12268;52.110;5.548;2023-10-13T04:00:25;20.50;99.90
24085;DHT22;12268;52.110;5.548;2023-10-13T04:02:52;20.50;99.90
24085;DHT22;12268;52.110;5.548;2023-10-13T04:05:38;20.60;99.90
24085;DHT22;12268;52.110;5.548;2023-10-13T04:08:10;20.40;99.90
24085;DHT22;12268;52.110;5.548;2023-10-13T04:10:54;20.40;99.90
24085;DHT22;12268;52.110;5.548;2023-10-13T04:13:21;20.40;99.90
24085;DHT22;12268;52.110;5.548;2023-10-13T19:59:19;20.10;99.90
24085;DHT22;12268;52.110;5.548;2023-10-13T20:01:44;20.20;99.90
24085;DHT22;12268;52.110;5.548;2023-10-13T20:04:11;20.40;99.90
24085;DHT22;12268;52.110;5.548;2023-10-13T20:06:39;20.10;99.90
24085;DHT22;12268;52.110;5.548;2023-10-13T20:09:05;20.10;99.90
24085;DHT22;12268;52.110;5.548;2023-10-13T20:11:42;20.20;99.90
